Terminal Aerodrome Forecast
Issued by NWS Amarillo, TX

Home | Current Version | Previous Version | Text Only | Print | Product List | Glossary On
Versions: 1 2 3 4 5 6 7 8 9 10 11 12 13 14 15 16 17 18 19
000
FTUS44 KAMA 071400 AAA
TAFAMA
TAF AMD
KAMA 071403Z 0714/0812 02014KT 2SM -SHRA BR OVC007
      TEMPO 0714/0718 5SM BR OVC010
     FM071800 02015G20KT P6SM OVC010
     FM080200 02008KT 3SM BR OVC008=

USA.gov is the U.S. government's official web portal to all federal, state and local government web resources and services.